Time;durP1;ratioP1;P1;durP2;ratioP2;P2;SDS_P1;SDS_P2;PMS_P1;PMS_P2;Temp;Humidity;BMP_temperature;BMP_pressure;BME280_temperature;BME280_humidity;BME280_pressure;Samples;Min_cycle;Max_cycle;Signal;HPM_P1;HPM_P2
2021/09/27 00:02:08;;;;;;;11.15;9.02;;;16.00;99.90;;;;;;5018012;28;20040;-80
2021/09/27 00:04:34;;;;;;;11.45;9.35;;;16.00;99.90;;;;;;5020771;28;20098;-80
2021/09/27 00:07:00;;;;;;;11.30;9.18;;;16.00;99.90;;;;;;5019465;28;20072;-79
2021/09/27 00:09:32;;;;;;;13.73;9.90;;;16.00;99.90;;;;;;5011869;28;20484;-79
2021/09/27 00:12:03;;;;;;;12.18;9.15;;;16.00;99.90;;;;;;5008996;28;20042;-79
2021/09/27 00:14:29;;;;;;;13.60;10.13;;;16.00;99.90;;;;;;5000636;28;20063;-79
2021/09/27 00:16:55;;;;;;;12.52;9.70;;;15.90;99.90;;;;;;5001257;28;20060;-79
2021/09/27 00:19:24;;;;;;;14.05;9.73;;;15.90;99.90;;;;;;5002747;28;20034;-80
2021/09/27 00:21:52;;;;;;;13.35;9.50;;;15.90;99.90;;;;;;5000425;28;20035;-80
2021/09/27 00:24:18;;;;;;;12.23;9.52;;;15.90;99.90;;;;;;5001646;28;20033;-80
2021/09/27 00:26:45;;;;;;;13.82;10.00;;;15.90;99.90;;;;;;5007242;28;20494;-80
2021/09/27 00:29:11;;;;;;;12.23;10.70;;;15.90;99.90;;;;;;5016432;28;20018;-79
2021/09/27 00:31:37;;;;;;;12.27;9.98;;;15.80;99.90;;;;;;5013160;28;20064;-80
2021/09/27 00:34:04;;;;;;;11.80;9.73;;;15.80;99.90;;;;;;5013844;28;20090;-79
2021/09/27 00:36:29;;;;;;;13.00;10.10;;;15.80;99.90;;;;;;5015270;28;20069;-80
2021/09/27 00:38:55;;;;;;;13.25;9.82;;;15.80;99.90;;;;;;5014298;28;20030;-80
2021/09/27 00:41:22;;;;;;;11.75;9.65;;;15.80;99.90;;;;;;5020370;28;20030;-79
2021/09/27 00:43:50;;;;;;;13.45;10.20;;;15.80;99.90;;;;;;5032478;28;20135;-79
2021/09/27 00:46:21;;;;;;;10.98;9.43;;;15.80;99.90;;;;;;5022922;28;20045;-80
2021/09/27 00:48:47;;;;;;;11.75;9.60;;;15.80;99.90;;;;;;5022741;28;20026;-79
2021/09/27 00:51:16;;;;;;;11.63;9.27;;;15.80;99.90;;;;;;5029899;28;20094;-79
2021/09/27 00:53:45;;;;;;;12.95;10.38;;;15.70;99.90;;;;;;5016897;28;20030;-79
2021/09/27 00:56:12;;;;;;;11.07;9.82;;;15.70;99.90;;;;;;5008113;28;20034;-79
2021/09/27 00:58:38;;;;;;;11.90;10.05;;;15.70;99.90;;;;;;5010198;28;20102;-80
2021/09/27 01:01:05;;;;;;;12.23;9.63;;;15.70;99.90;;;;;;5010052;28;20022;-79
2021/09/27 01:03:31;;;;;;;14.07;9.68;;;15.70;99.90;;;;;;5014695;28;20030;-79
2021/09/27 01:06:24;;;;;;;11.35;10.05;;;15.60;99.90;;;;;;5007741;28;20034;-78
2021/09/27 01:09:05;;;;;;;13.10;10.57;;;15.60;99.90;;;;;;5007410;28;20077;-80
2021/09/27 01:11:49;;;;;;;11.38;9.48;;;15.60;99.90;;;;;;4995934;28;20062;-79
2021/09/27 01:14:39;;;;;;;12.15;9.70;;;15.60;99.90;;;;;;4981441;28;20029;-80
2021/09/27 01:17:23;;;;;;;11.73;9.43;;;15.60;99.90;;;;;;4995169;28;20102;-80
2021/09/27 01:20:06;;;;;;;12.48;9.88;;;15.60;99.90;;;;;;5018333;28;20053;-80
2021/09/27 01:23:29;;;;;;;13.68;10.25;;;15.60;99.90;;;;;;5018244;28;20053;-80
2021/09/27 01:26:25;;;;;;;12.75;10.38;;;15.60;99.90;;;;;;4979107;28;20089;-80
2021/09/27 01:28:57;;;;;;;11.63;9.95;;;15.50;99.90;;;;;;5015639;28;20033;-80
2021/09/27 01:31:49;;;;;;;11.27;10.02;;;15.60;99.90;;;;;;5013696;28;20038;-80
2021/09/27 01:34:22;;;;;;;12.65;9.55;;;15.50;99.90;;;;;;4999986;28;20018;-80
2021/09/27 01:37:10;;;;;;;11.43;9.52;;;15.60;99.90;;;;;;5010199;28;20041;-80
2021/09/27 01:40:00;;;;;;;11.45;9.50;;;15.60;99.90;;;;;;5012733;28;20026;-80
2021/09/27 01:42:34;;;;;;;13.05;10.35;;;15.60;99.90;;;;;;4995280;28;20031;-80
2021/09/27 01:45:11;;;;;;;12.00;10.10;;;15.60;99.90;;;;;;5006792;28;20080;-80
2021/09/27 01:47:53;;;;;;;12.15;10.32;;;15.60;99.90;;;;;;5015016;28;20255;-80
2021/09/27 01:50:29;;;;;;;13.90;10.73;;;15.60;99.90;;;;;;5013643;28;20041;-80
2021/09/27 01:53:07;;;;;;;14.10;10.73;;;15.60;99.90;;;;;;5009229;28;20053;-79
2021/09/27 01:56:06;;;;;;;11.57;9.48;;;15.60;99.90;;;;;;5013991;28;20018;-79
2021/09/27 01:58:44;;;;;;;10.50;9.25;;;15.50;99.90;;;;;;5005505;28;20026;-80
2021/09/27 02:01:31;;;;;;;10.70;9.20;;;15.60;99.90;;;;;;5005157;28;20030;-80
2021/09/27 02:04:09;;;;;;;11.18;9.18;;;15.60;99.90;;;;;;5006613;28;20082;-80
2021/09/27 02:06:48;;;;;;;11.45;9.63;;;15.60;99.90;;;;;;5013559;28;20141;-80
2021/09/27 02:09:39;;;;;;;11.93;9.48;;;15.60;99.90;;;;;;5017625;28;20604;-80
2021/09/27 02:12:11;;;;;;;13.07;10.38;;;15.60;99.90;;;;;;5020275;28;20028;-80
2021/09/27 02:14:53;;;;;;;14.13;10.05;;;15.60;99.90;;;;;;5022901;28;20029;-79
2021/09/27 02:17:32;;;;;;;11.82;9.85;;;15.60;99.90;;;;;;5019375;28;20048;-80
2021/09/27 02:20:17;;;;;;;13.10;10.77;;;15.60;99.90;;;;;;5002976;28;20041;-80
2021/09/27 02:22:54;;;;;;;9.95;8.95;;;15.60;99.90;;;;;;5001763;28;20037;-79
2021/09/27 02:25:31;;;;;;;10.70;9.13;;;15.60;99.90;;;;;;5003817;28;20145;-81
2021/09/27 02:28:00;;;;;;;10.90;9.45;;;15.60;99.90;;;;;;5002313;28;20081;-79
2021/09/27 02:30:44;;;;;;;10.10;9.10;;;15.50;99.90;;;;;;5024800;28;20199;-80
2021/09/27 02:33:33;;;;;;;10.20;8.45;;;15.50;99.90;;;;;;5030289;28;20017;-80
2021/09/27 02:36:22;;;;;;;10.65;8.55;;;15.50;99.90;;;;;;5027610;28;20018;-80
2021/09/27 02:39:05;;;;;;;8.32;7.35;;;15.60;99.90;;;;;;5018944;28;20040;-80
2021/09/27 02:41:30;;;;;;;10.10;8.68;;;15.60;99.90;;;;;;5025121;28;20029;-78
2021/09/27 02:43:56;;;;;;;11.35;8.73;;;15.60;99.90;;;;;;5018912;28;20023;-79
2021/09/27 02:46:23;;;;;;;11.68;9.93;;;15.60;99.90;;;;;;5013522;28;20045;-79
2021/09/27 02:48:58;;;;;;;9.32;8.32;;;15.60;99.90;;;;;;5022924;28;20089;-80
2021/09/27 02:51:26;;;;;;;8.70;7.80;;;15.60;99.90;;;;;;4999973;28;20022;-80
2021/09/27 02:53:52;;;;;;;10.25;8.40;;;15.60;99.90;;;;;;5000005;28;20176;-80
2021/09/27 02:56:23;;;;;;;9.02;8.05;;;15.60;99.90;;;;;;5000474;28;20045;-80
2021/09/27 02:59:17;;;;;;;9.02;7.97;;;15.60;99.90;;;;;;5006774;28;20502;-80
2021/09/27 03:02:21;;;;;;;10.85;8.85;;;15.60;99.90;;;;;;5006069;28;20108;-80
2021/09/27 03:05:09;;;;;;;9.40;8.20;;;15.60;99.90;;;;;;4997136;28;20463;-80
2021/09/27 03:07:56;;;;;;;8.63;7.72;;;15.60;99.90;;;;;;5017174;28;20021;-80
2021/09/27 03:10:24;;;;;;;10.82;8.25;;;15.60;99.90;;;;;;5010956;28;20029;-79
2021/09/27 03:13:06;;;;;;;8.50;7.60;;;15.50;99.90;;;;;;5032484;23;20042;-83
2021/09/27 03:15:41;;;;;;;8.38;7.57;;;15.50;99.90;;;;;;5015823;28;20131;-83
2021/09/27 03:18:38;;;;;;;8.18;7.28;;;15.50;99.90;;;;;;5009610;28;20512;-83
2021/09/27 03:21:29;;;;;;;8.57;7.53;;;15.50;99.90;;;;;;5027547;28;20033;-83
2021/09/27 03:24:23;;;;;;;9.30;8.40;;;15.50;99.90;;;;;;5011459;28;20036;-83
2021/09/27 03:27:14;;;;;;;8.80;7.88;;;15.40;99.90;;;;;;5019098;28;20030;-84
2021/09/27 03:30:02;;;;;;;8.30;7.30;;;15.30;99.90;;;;;;5003645;28;20089;-83
2021/09/27 03:32:51;;;;;;;7.53;6.72;;;15.20;99.90;;;;;;5006756;28;20026;-83
2021/09/27 03:35:44;;;;;;;9.05;7.40;;;15.20;99.90;;;;;;5003573;28;20026;-83
2021/09/27 03:38:14;;;;;;;7.63;6.75;;;15.10;99.90;;;;;;5003547;28;20562;-83
2021/09/27 03:40:56;;;;;;;8.45;7.32;;;15.00;99.90;;;;;;5001800;28;20030;-86
2021/09/27 03:43:48;;;;;;;7.78;7.00;;;15.00;99.90;;;;;;5003984;28;20379;-83
2021/09/27 03:46:46;;;;;;;8.02;7.18;;;15.00;99.90;;;;;;5010328;28;20030;-83
2021/09/27 03:49:14;;;;;;;8.43;7.47;;;15.00;99.90;;;;;;4996670;28;20030;-82
2021/09/27 03:51:54;;;;;;;7.70;6.80;;;15.00;99.90;;;;;;5004934;28;20030;-83
2021/09/27 03:54:33;;;;;;;8.35;7.40;;;15.00;99.90;;;;;;5002457;28;20040;-82
2021/09/27 03:57:06;;;;;;;8.63;7.50;;;15.10;99.90;;;;;;5002167;28;20030;-83
2021/09/27 03:59:42;;;;;;;8.27;7.15;;;15.00;99.90;;;;;;4984204;28;20060;-83
2021/09/27 04:02:30;;;;;;;9.43;8.07;;;14.90;99.90;;;;;;5004765;28;20061;-84
2021/09/27 04:05:06;;;;;;;9.38;8.18;;;14.90;99.90;;;;;;5002633;28;20069;-78
2021/09/27 04:07:44;;;;;;;9.32;7.63;;;14.80;99.90;;;;;;5001312;28;20038;-78
2021/09/27 04:10:32;;;;;;;8.60;7.78;;;14.70;99.90;;;;;;5000597;28;20022;-79
2021/09/27 04:13:49;;;;;;;9.55;7.35;;;14.70;99.90;;;;;;5014948;28;20040;-78
2021/09/27 04:16:17;;;;;;;8.43;7.10;;;14.70;99.90;;;;;;4953639;28;20024;-77
2021/09/27 04:18:59;;;;;;;7.55;6.85;;;14.70;99.90;;;;;;4960468;28;20043;-78
2021/09/27 04:21:54;;;;;;;7.50;6.60;;;14.70;99.90;;;;;;4992298;28;20462;-78
2021/09/27 04:24:38;;;;;;;8.02;6.90;;;14.60;99.90;;;;;;5017898;28;20018;-79
2021/09/27 04:27:10;;;;;;;8.25;7.43;;;14.60;99.90;;;;;;5009667;28;20062;-79
2021/09/27 04:29:45;;;;;;;7.60;6.80;;;14.60;99.90;;;;;;5012970;28;20046;-79
2021/09/27 04:32:31;;;;;;;8.13;6.47;;;14.50;99.90;;;;;;5009558;28;20049;-80
2021/09/27 04:35:02;;;;;;;7.70;6.90;;;14.50;99.90;;;;;;4995174;28;20043;-77
2021/09/27 04:37:29;;;;;;;7.90;6.43;;;14.50;99.90;;;;;;5000705;28;20044;-78
2021/09/27 04:39:56;;;;;;;6.68;6.00;;;14.50;99.90;;;;;;5001130;28;20058;-78
2021/09/27 04:42:56;;;;;;;8.40;6.88;;;14.50;99.90;;;;;;5003680;28;20395;-80
2021/09/27 04:45:43;;;;;;;7.60;6.80;;;14.50;99.90;;;;;;4987270;28;20380;-86
2021/09/27 04:48:18;;;;;;;7.15;6.45;;;14.50;99.90;;;;;;5000018;28;20026;-85
2021/09/27 04:50:59;;;;;;;7.18;6.25;;;14.50;99.90;;;;;;5001148;28;20022;-84
2021/09/27 04:53:43;;;;;;;7.38;6.55;;;14.50;99.90;;;;;;5019328;28;20025;-84
2021/09/27 04:56:36;;;;;;;7.93;6.70;;;14.60;99.90;;;;;;5000356;28;20110;-85
2021/09/27 04:59:40;;;;;;;9.35;7.35;;;14.60;99.90;;;;;;5018592;28;20026;-85
2021/09/27 05:02:11;;;;;;;7.05;6.32;;;14.60;99.90;;;;;;4988519;28;20042;-85
2021/09/27 05:04:52;;;;;;;7.65;6.55;;;14.60;99.90;;;;;;5001095;28;20038;-84
2021/09/27 05:07:53;;;;;;;7.50;6.70;;;14.50;99.90;;;;;;4978508;28;20395;-84
2021/09/27 05:10:43;;;;;;;7.70;6.82;;;14.50;99.90;;;;;;4980257;28;20027;-85
2021/09/27 05:14:03;;;;;;;6.93;6.10;;;14.40;99.90;;;;;;4991831;28;20034;-84
2021/09/27 05:16:54;;;;;;;6.97;6.18;;;14.40;99.90;;;;;;4971683;28;20430;-84
2021/09/27 05:19:26;;;;;;;6.03;5.45;;;14.40;99.90;;;;;;4963744;28;20145;-84
2021/09/27 05:22:10;;;;;;;6.93;6.00;;;14.50;99.90;;;;;;4999103;28;20076;-83
2021/09/27 05:24:45;;;;;;;6.82;5.72;;;14.50;99.90;;;;;;5000548;28;20050;-84
2021/09/27 05:27:22;;;;;;;7.38;6.57;;;14.60;99.90;;;;;;5019206;28;20034;-84
2021/09/27 05:30:26;;;;;;;7.15;5.95;;;14.70;99.90;;;;;;4990565;28;20030;-83
2021/09/27 05:33:00;;;;;;;8.05;7.25;;;14.80;99.90;;;;;;5003960;28;20030;-83
2021/09/27 05:35:32;;;;;;;9.10;7.15;;;14.80;99.90;;;;;;4999285;28;20029;-82
2021/09/27 05:38:16;;;;;;;8.38;6.78;;;14.80;99.90;;;;;;5019752;28;20034;-82
2021/09/27 05:40:52;;;;;;;7.82;7.03;;;14.80;99.90;;;;;;5001293;28;20041;-84
2021/09/27 05:43:36;;;;;;;8.70;6.78;;;14.80;99.90;;;;;;5014987;28;20029;-83
2021/09/27 05:46:21;;;;;;;8.35;6.57;;;14.80;99.90;;;;;;5024673;28;20025;-82
2021/09/27 05:49:10;;;;;;;11.32;7.47;;;14.70;99.90;;;;;;5018126;28;20046;-82
2021/09/27 05:51:52;;;;;;;7.35;6.50;;;14.70;99.90;;;;;;5011171;28;20106;-82
2021/09/27 05:54:33;;;;;;;7.90;6.85;;;14.60;99.90;;;;;;5020676;28;20030;-82
2021/09/27 05:57:08;;;;;;;6.95;6.30;;;14.70;99.90;;;;;;5025150;28;20026;-83
2021/09/27 05:59:49;;;;;;;8.15;6.68;;;14.70;99.90;;;;;;5018990;28;20026;-83
2021/09/27 06:02:46;;;;;;;8.50;7.27;;;14.80;99.90;;;;;;5031534;28;20022;-83
2021/09/27 06:05:23;;;;;;;7.07;6.07;;;14.80;99.90;;;;;;5005799;28;20060;-84
2021/09/27 06:07:59;;;;;;;7.18;6.05;;;15.00;99.90;;;;;;5037057;28;20026;-84
2021/09/27 06:10:34;;;;;;;6.63;5.93;;;15.20;99.90;;;;;;4996126;28;20058;-84
2021/09/27 06:13:17;;;;;;;6.18;5.53;;;15.40;99.90;;;;;;5019882;28;20065;-84
2021/09/27 06:15:56;;;;;;;6.47;5.43;;;15.50;99.90;;;;;;5000687;28;20081;-84
2021/09/27 06:18:40;;;;;;;6.90;5.80;;;15.50;99.90;;;;;;5006821;28;20022;-84
2021/09/27 06:21:40;;;;;;;5.95;5.35;;;15.50;99.90;;;;;;5024739;28;20026;-83
2021/09/27 06:24:50;;;;;;;8.80;6.13;;;15.50;99.90;;;;;;5006299;28;20082;-83
2021/09/27 06:27:40;;;;;;;6.03;5.43;;;15.50;99.90;;;;;;5004743;28;20034;-83
2021/09/27 06:30:27;;;;;;;6.57;5.32;;;15.50;99.90;;;;;;5013431;28;20018;-84
2021/09/27 06:33:15;;;;;;;6.57;4.70;;;15.60;99.90;;;;;;5021821;28;20038;-84
2021/09/27 06:35:43;;;;;;;5.95;5.35;;;15.70;99.90;;;;;;5003863;28;20026;-84
2021/09/27 06:38:13;;;;;;;6.07;5.47;;;15.80;99.90;;;;;;5004853;28;20053;-84
2021/09/27 06:40:48;;;;;;;6.00;5.40;;;15.90;99.90;;;;;;5017891;28;20026;-84
2021/09/27 06:43:18;;;;;;;6.05;5.38;;;16.00;99.90;;;;;;4994569;28;20018;-82
2021/09/27 06:45:44;;;;;;;6.28;5.30;;;16.20;99.90;;;;;;5012541;28;20026;-85
2021/09/27 06:48:11;;;;;;;4.78;4.38;;;16.30;99.90;;;;;;4992375;28;20010;-83
2021/09/27 06:50:36;;;;;;;5.70;4.93;;;16.40;99.90;;;;;;4986993;28;20093;-84
2021/09/27 06:53:02;;;;;;;5.22;4.72;;;16.60;99.90;;;;;;5005217;28;20030;-84
2021/09/27 06:55:28;;;;;;;5.43;4.93;;;16.90;99.90;;;;;;4986268;28;20041;-84
2021/09/27 06:57:54;;;;;;;6.15;5.38;;;17.10;99.90;;;;;;5005699;28;20085;-83
2021/09/27 07:00:20;;;;;;;5.38;4.88;;;17.50;99.90;;;;;;5018409;28;20034;-83
2021/09/27 07:02:46;;;;;;;6.35;5.55;;;17.70;99.90;;;;;;5025434;28;20041;-84
2021/09/27 07:05:13;;;;;;;5.63;4.90;;;18.00;99.90;;;;;;5005813;28;20034;-83
2021/09/27 07:07:40;;;;;;;5.38;4.28;;;18.10;99.90;;;;;;5024080;28;20069;-84
2021/09/27 07:10:09;;;;;;;5.10;4.60;;;18.30;99.90;;;;;;5008349;28;20034;-85
2021/09/27 07:12:35;;;;;;;5.10;4.47;;;18.50;99.90;;;;;;5017957;28;20116;-84
2021/09/27 07:15:02;;;;;;;5.22;4.72;;;18.60;99.90;;;;;;5012405;28;20030;-85
2021/09/27 07:17:28;;;;;;;7.00;5.82;;;18.80;99.90;;;;;;4993030;28;20034;-84
2021/09/27 07:19:54;;;;;;;6.25;5.53;;;18.90;99.90;;;;;;5011841;28;20075;-84
2021/09/27 07:22:20;;;;;;;5.45;4.95;;;18.90;99.90;;;;;;5007554;28;20037;-84
2021/09/27 07:24:46;;;;;;;6.93;5.13;;;18.90;99.90;;;;;;5014637;28;20042;-83
2021/09/27 07:27:12;;;;;;;6.22;5.40;;;18.90;99.90;;;;;;5015784;28;20049;-83
2021/09/27 07:29:38;;;;;;;5.57;5.07;;;18.90;99.90;;;;;;5008116;28;20061;-84
2021/09/27 07:32:04;;;;;;;7.88;6.18;;;19.10;99.90;;;;;;5008569;28;20033;-84
2021/09/27 07:34:30;;;;;;;5.82;4.78;;;19.30;99.50;;;;;;5012835;28;20049;-84
2021/09/27 07:36:57;;;;;;;7.07;4.72;;;19.60;98.90;;;;;;5003164;28;20030;-84
2021/09/27 07:39:23;;;;;;;3.85;3.42;;;19.80;98.20;;;;;;5002414;28;20018;-84
2021/09/27 07:41:49;;;;;;;5.75;5.25;;;20.00;97.20;;;;;;5009536;28;20033;-84
2021/09/27 07:44:15;;;;;;;6.22;4.35;;;20.20;96.30;;;;;;5015424;28;20018;-83
2021/09/27 07:46:41;;;;;;;7.90;5.57;;;20.40;95.40;;;;;;5026673;28;20053;-84
2021/09/27 07:49:06;;;;;;;4.65;4.25;;;20.60;94.60;;;;;;5017701;28;20038;-83
2021/09/27 07:51:32;;;;;;;4.95;4.45;;;20.80;93.60;;;;;;5017871;28;20030;-84
2021/09/27 07:53:58;;;;;;;5.88;4.65;;;20.90;93.00;;;;;;5020115;28;20467;-84
2021/09/27 07:56:24;;;;;;;5.88;4.30;;;20.80;91.90;;;;;;5012954;28;20022;-82
2021/09/27 07:58:50;;;;;;;4.40;4.00;;;20.60;91.80;;;;;;5025207;28;20080;-83
2021/09/27 08:01:16;;;;;;;4.90;4.35;;;20.40;92.60;;;;;;5018881;28;20058;-83
2021/09/27 08:03:42;;;;;;;6.30;5.03;;;20.30;92.30;;;;;;5005137;28;20027;-85
2021/09/27 08:06:08;;;;;;;4.65;4.25;;;20.30;91.90;;;;;;4996494;28;20022;-85
2021/09/27 08:08:35;;;;;;;5.43;4.82;;;20.20;92.20;;;;;;5021910;28;20450;-84
2021/09/27 08:11:00;;;;;;;4.70;4.30;;;20.30;91.70;;;;;;5001607;28;20014;-84
2021/09/27 08:13:26;;;;;;;4.57;4.18;;;20.40;91.60;;;;;;4993696;28;20026;-85
2021/09/27 08:15:53;;;;;;;6.15;5.55;;;20.30;91.60;;;;;;5011525;28;20078;-84
2021/09/27 08:18:21;;;;;;;6.18;5.57;;;20.40;91.30;;;;;;5012441;28;20029;-85
2021/09/27 08:20:49;;;;;;;6.50;5.05;;;20.50;91.50;;;;;;4993245;28;20119;-85
2021/09/27 08:23:16;;;;;;;5.40;4.78;;;20.60;91.30;;;;;;5021346;28;20063;-85
2021/09/27 08:25:43;;;;;;;5.18;4.30;;;20.90;90.00;;;;;;5022865;28;20052;-85
2021/09/27 08:28:11;;;;;;;5.30;4.00;;;21.30;89.60;;;;;;5004241;28;20023;-84
2021/09/27 08:30:53;;;;;;;5.15;4.55;;;21.80;88.40;;;;;;4985077;28;20061;-85
2021/09/27 08:33:21;;;;;;;5.72;5.13;;;22.10;84.20;;;;;;5003644;28;20026;-85
2021/09/27 08:35:49;;;;;;;5.00;4.50;;;22.10;83.50;;;;;;5021979;28;20026;-84
2021/09/27 08:38:17;;;;;;;6.38;5.63;;;21.70;84.20;;;;;;4985779;28;20065;-85
2021/09/27 08:40:58;;;;;;;5.55;5.05;;;21.30;85.50;;;;;;4980852;28;20554;-84
2021/09/27 08:43:49;;;;;;;5.88;5.38;;;21.10;87.30;;;;;;5005445;28;20018;-85
2021/09/27 08:46:41;;;;;;;6.18;5.57;;;20.80;89.00;;;;;;5020207;28;20033;-86
2021/09/27 08:49:16;;;;;;;5.20;4.75;;;20.80;89.90;;;;;;4993669;28;20034;-85
2021/09/27 08:51:43;;;;;;;4.88;4.47;;;21.10;89.50;;;;;;4985634;28;20018;-84
2021/09/27 08:54:22;;;;;;;4.60;4.28;;;21.40;88.40;;;;;;5010550;28;20030;-83
2021/09/27 08:56:52;;;;;;;7.63;5.15;;;21.90;86.40;;;;;;5005698;28;20060;-84
2021/09/27 08:59:23;;;;;;;5.50;5.00;;;22.30;83.80;;;;;;4996881;28;20396;-83
2021/09/27 09:02:16;;;;;;;6.22;5.63;;;22.60;82.70;;;;;;5006381;28;20121;-83
2021/09/27 09:04:46;;;;;;;;;;;22.80;79.60;;;;;;4980871;28;20460;-83
2021/09/27 09:07:18;;;;;;;5.63;5.15;;;22.80;80.80;;;;;;4986724;28;19920;-84
2021/09/27 09:09:48;;;;;;;8.45;6.28;;;23.10;79.80;;;;;;4986495;28;20018;-83
2021/09/27 09:14:55;;;;;;;7.05;6.35;;;23.50;75.70;;;;;;5031973;28;20115;-81
2021/09/27 09:17:27;;;;;;;6.43;5.35;;;23.50;75.20;;;;;;5027934;28;20022;-80
2021/09/27 09:19:53;;;;;;;6.07;5.50;;;23.60;75.60;;;;;;5044270;28;20032;-81
2021/09/27 09:22:32;;;;;;;5.38;4.88;;;23.80;75.30;;;;;;5027543;28;20122;-81
2021/09/27 09:24:58;;;;;;;6.25;5.65;;;23.70;73.10;;;;;;5029007;28;20033;-81
2021/09/27 09:27:32;;;;;;;6.65;6.05;;;23.30;73.90;;;;;;5046972;28;20104;-80
2021/09/27 09:29:57;;;;;;;7.03;5.68;;;23.20;74.40;;;;;;5024455;28;20378;-82
2021/09/27 09:32:31;;;;;;;7.35;5.22;;;23.00;73.30;;;;;;5014337;28;20029;-81
2021/09/27 09:35:33;;;;;;;6.32;5.80;;;22.60;74.00;;;;;;5028107;28;20026;-81
2021/09/27 09:38:10;;;;;;;7.30;6.65;;;22.50;75.20;;;;;;4944342;29;20040;-80
2021/09/27 09:40:52;;;;;;;5.72;5.20;;;22.80;76.30;;;;;;4996320;28;20034;-80
2021/09/27 09:43:36;;;;;;;5.60;5.10;;;24.90;70.30;;;;;;5009692;28;20136;-81
2021/09/27 09:50:16;;;;;;;4.93;4.53;;;24.70;66.80;;;;;;4937698;29;20067;-82
2021/09/27 09:53:39;;;;;;;4.68;4.28;;;23.90;68.90;;;;;;4928595;29;20035;-82
2021/09/27 09:56:09;;;;;;;4.82;4.43;;;23.20;71.00;;;;;;4976375;28;20033;-81
2021/09/27 09:58:38;;;;;;;4.95;4.50;;;22.70;72.30;;;;;;4983372;28;20050;-79
2021/09/27 10:01:19;;;;;;;8.00;5.88;;;22.40;71.70;;;;;;5005199;28;20057;-80
2021/09/27 10:04:04;;;;;;;5.82;5.32;;;22.10;74.50;;;;;;5009669;28;20042;-80
2021/09/27 10:06:49;;;;;;;6.40;5.60;;;22.30;75.50;;;;;;5040657;28;20104;-80
2021/09/27 10:09:37;;;;;;;6.03;5.45;;;22.90;71.70;;;;;;5045982;28;20032;-80
2021/09/27 10:18:29;;;;;;;4.50;4.10;;;22.50;69.70;;;;;;4952679;28;20115;-81
2021/09/27 10:21:29;;;;;;;6.78;5.07;;;22.40;71.60;;;;;;5015938;28;20022;-80
2021/09/27 10:24:19;;;;;;;5.28;4.78;;;22.60;72.00;;;;;;5017548;28;20025;-81
2021/09/27 10:27:50;;;;;;;5.53;5.00;;;23.30;70.80;;;;;;4992333;28;20435;-81
2021/09/27 10:33:34;;;;;;;5.20;4.70;;;24.50;63.20;;;;;;4991458;28;20042;-81
2021/09/27 10:36:21;;;;;;;4.75;4.35;;;25.00;62.20;;;;;;4992108;28;20050;-81
2021/09/27 10:38:52;;;;;;;4.80;4.38;;;25.40;61.00;;;;;;5016693;28;20040;-81
2021/09/27 10:41:24;;;;;;;5.00;4.50;;;25.20;60.10;;;;;;5025841;28;20425;-81
2021/09/27 10:43:54;;;;;;;5.35;4.95;;;24.90;61.60;;;;;;4997708;28;20037;-82
2021/09/27 10:46:25;;;;;;;5.78;5.25;;;24.80;62.10;;;;;;4998658;28;20125;-80
2021/09/27 10:48:55;;;;;;;5.70;5.20;;;25.10;62.30;;;;;;4997584;28;20048;-80
2021/09/27 10:51:30;;;;;;;5.30;4.90;;;25.00;60.50;;;;;;5009620;28;20034;-81
2021/09/27 10:54:34;;;;;;;5.65;5.15;;;24.40;61.70;;;;;;5028470;28;20026;-81
2021/09/27 10:57:01;;;;;;;5.32;4.82;;;23.80;64.00;;;;;;5012723;28;20049;-81
2021/09/27 10:59:44;;;;;;;7.35;5.97;;;23.40;65.50;;;;;;5006892;28;20026;-83
2021/09/27 11:02:28;;;;;;;6.25;5.65;;;23.10;66.70;;;;;;5004537;28;20432;-81
2021/09/27 11:05:25;;;;;;;5.40;4.97;;;22.70;67.70;;;;;;5021128;28;20654;-80
2021/09/27 11:07:53;;;;;;;4.90;4.45;;;22.30;69.10;;;;;;5000364;28;20027;-80
2021/09/27 11:10:25;;;;;;;5.85;5.35;;;22.50;70.80;;;;;;5008694;28;20039;-81
2021/09/27 11:12:52;;;;;;;5.78;5.28;;;23.20;69.40;;;;;;5019807;28;20085;-81
2021/09/27 11:15:30;;;;;;;5.78;5.28;;;23.70;66.50;;;;;;5013469;28;20137;-80
2021/09/27 11:18:22;;;;;;;5.95;5.38;;;24.40;63.60;;;;;;5001998;28;20030;-81
2021/09/27 11:20:48;;;;;;;5.32;4.43;;;24.40;62.50;;;;;;5005189;28;20093;-81
2021/09/27 11:23:29;;;;;;;6.07;5.57;;;23.90;63.60;;;;;;5028453;28;20033;-82
2021/09/27 11:26:14;;;;;;;5.70;5.20;;;23.90;63.40;;;;;;5023313;28;20174;-80
2021/09/27 11:28:53;;;;;;;5.68;5.15;;;24.10;63.40;;;;;;5012459;28;20070;-80
2021/09/27 11:31:22;;;;;;;6.75;5.32;;;24.00;62.50;;;;;;5020984;28;20018;-80
2021/09/27 11:34:25;;;;;;;5.47;4.97;;;24.20;62.80;;;;;;5029373;28;20045;-79
2021/09/27 11:37:06;;;;;;;4.78;4.28;;;24.80;61.80;;;;;;5033236;28;20010;-80
2021/09/27 11:39:40;;;;;;;5.70;5.20;;;25.20;60.80;;;;;;5021398;28;20082;-79
2021/09/27 11:42:29;;;;;;;5.43;4.95;;;25.70;58.90;;;;;;5014878;28;20117;-79
2021/09/27 11:44:58;;;;;;;6.55;4.90;;;26.10;58.60;;;;;;4988687;28;20127;-79
2021/09/27 11:47:43;;;;;;;4.80;4.40;;;26.10;57.00;;;;;;4993124;28;20022;-80
2021/09/27 11:50:32;;;;;;;6.45;5.70;;;26.10;57.90;;;;;;5010194;28;20030;-79
2021/09/27 11:53:13;;;;;;;5.80;5.20;;;25.90;57.10;;;;;;5014934;28;20049;-80
2021/09/27 11:55:42;;;;;;;4.88;4.47;;;25.30;59.90;;;;;;5024137;28;20033;-80
2021/09/27 11:58:10;;;;;;;6.20;5.28;;;25.00;60.20;;;;;;5005943;28;20066;-80
2021/09/27 12:00:47;;;;;;;5.95;5.22;;;24.60;60.40;;;;;;5029621;28;20018;-79
2021/09/27 12:03:35;;;;;;;5.32;4.82;;;24.10;62.30;;;;;;5013909;28;20030;-81
2021/09/27 12:06:16;;;;;;;5.22;4.72;;;23.70;62.50;;;;;;4997282;28;20432;-81
2021/09/27 12:09:14;;;;;;;5.68;5.18;;;23.60;63.40;;;;;;4992403;28;20030;-81
2021/09/27 12:11:52;;;;;;;5.97;5.45;;;24.10;62.70;;;;;;5003527;28;20046;-82
2021/09/27 12:14:24;;;;;;;5.20;4.70;;;24.50;61.40;;;;;;5013242;28;20439;-80
2021/09/27 12:16:53;;;;;;;4.85;4.45;;;24.90;60.30;;;;;;5005616;28;20018;-81
2021/09/27 12:19:29;;;;;;;5.80;4.30;;;25.40;58.20;;;;;;5018756;28;20030;-81
2021/09/27 12:22:03;;;;;;;5.90;4.68;;;25.70;58.70;;;;;;5001582;28;20360;-80
2021/09/27 12:24:37;;;;;;;5.10;4.70;;;26.00;57.30;;;;;;5015655;28;20041;-80
2021/09/27 12:27:03;;;;;;;4.68;4.28;;;26.30;58.20;;;;;;5025421;28;20029;-81
2021/09/27 12:29:29;;;;;;;5.30;4.80;;;26.30;56.10;;;;;;5010782;28;20044;-80
2021/09/27 12:32:01;;;;;;;7.45;5.07;;;25.90;56.60;;;;;;5011125;28;20023;-81
2021/09/27 12:34:43;;;;;;;;;;;25.90;58.00;;;;;;5014280;28;20121;-80
2021/09/27 12:37:12;;;;;;;5.35;4.85;;;25.80;57.40;;;;;;5032185;28;19909;-81
2021/09/27 12:39:42;;;;;;;5.30;4.80;;;25.30;58.80;;;;;;5034572;28;20018;-84
2021/09/27 12:42:17;;;;;;;5.25;4.80;;;25.00;60.50;;;;;;5023739;28;20017;-83
2021/09/27 12:44:53;;;;;;;5.15;4.65;;;24.70;61.30;;;;;;5004306;28;20030;-85
2021/09/27 12:47:19;;;;;;;4.72;4.22;;;24.60;61.60;;;;;;4988147;28;20398;-83
2021/09/27 12:49:56;;;;;;;5.47;4.97;;;25.20;60.70;;;;;;4998406;28;20085;-83
2021/09/27 12:52:38;;;;;;;7.35;5.70;;;25.60;58.60;;;;;;5027200;28;20030;-84
2021/09/27 12:55:08;;;;;;;5.25;4.68;;;25.60;55.70;;;;;;5023846;28;20036;-85
2021/09/27 12:57:41;;;;;;;5.28;4.47;;;25.30;56.50;;;;;;4989238;28;20030;-84
2021/09/27 13:00:22;;;;;;;4.85;4.45;;;25.30;56.30;;;;;;5003209;28;20061;-84
2021/09/27 13:02:50;;;;;;;4.13;3.83;;;25.60;55.90;;;;;;5029991;28;20026;-84
2021/09/27 13:05:26;;;;;;;4.50;4.10;;;26.10;55.00;;;;;;5029051;28;20044;-83
2021/09/27 13:07:57;;;;;;;5.45;5.05;;;26.40;53.00;;;;;;5024397;28;20080;-84
2021/09/27 13:10:34;;;;;;;5.18;4.30;;;26.20;53.60;;;;;;5025291;28;20105;-84
2021/09/27 13:13:11;;;;;;;5.35;4.53;;;26.40;53.50;;;;;;5026667;28;20080;-84
2021/09/27 13:15:50;;;;;;;5.32;4.82;;;26.50;53.70;;;;;;5028599;28;20030;-84
2021/09/27 13:18:32;;;;;;;5.10;4.55;;;26.70;54.10;;;;;;5021757;28;20231;-84
2021/09/27 13:21:22;;;;;;;5.57;5.07;;;26.80;53.50;;;;;;5019224;28;20031;-84
2021/09/27 13:27:34;;;;;;;7.05;4.60;;;27.20;52.40;;;;;;5000199;28;20026;-83
2021/09/27 13:30:11;;;;;;;5.47;4.70;;;26.90;54.30;;;;;;5049063;28;20034;-84
2021/09/27 13:32:37;;;;;;;4.72;4.32;;;26.90;55.20;;;;;;5031053;28;20037;-83
2021/09/27 13:35:23;;;;;;;4.57;4.18;;;26.90;55.10;;;;;;5021357;28;20038;-85
2021/09/27 13:38:13;;;;;;;4.80;4.43;;;26.90;53.90;;;;;;5028721;28;20022;-84
2021/09/27 13:41:03;;;;;;;5.15;4.13;;;26.80;52.10;;;;;;5030664;28;20025;-83
2021/09/27 13:43:37;;;;;;;4.88;4.47;;;26.60;52.40;;;;;;5046022;28;20017;-83
2021/09/27 13:46:13;;;;;;;4.88;4.43;;;26.40;53.40;;;;;;5039524;28;20022;-85
2021/09/27 13:48:39;;;;;;;5.10;4.68;;;26.20;53.10;;;;;;5032384;28;20041;-83
2021/09/27 13:51:05;;;;;;;4.32;3.92;;;26.10;54.20;;;;;;5031735;28;20156;-84
2021/09/27 13:53:53;;;;;;;4.53;4.13;;;26.20;54.70;;;;;;5012523;28;20029;-84
2021/09/27 13:56:32;;;;;;;5.22;4.72;;;26.10;54.70;;;;;;5019959;28;20121;-85
2021/09/27 13:58:58;;;;;;;6.68;4.97;;;26.00;55.50;;;;;;5036262;28;20041;-85